Time;durP1;ratioP1;P1;durP2;ratioP2;P2;SDS_P1;SDS_P2;PMS_P1;PMS_P2;Temp;Humidity;BMP_temperature;BMP_pressure;BME280_temperature;BME280_humidity;BME280_pressure;Samples;Min_cycle;Max_cycle;Signal;HPM_P1;HPM_P2
2023/04/02 00:00:16;;;;;;;8.25;4.45;;;5.10;99.90;;;;;;5094461;28;20047;-79
2023/04/02 00:03:03;;;;;;;8.77;5.28;;;5.10;99.90;;;;;;5094403;28;20412;-80
2023/04/02 00:05:48;;;;;;;10.57;5.57;;;5.10;99.90;;;;;;5095297;28;20483;-81
2023/04/02 00:08:39;;;;;;;10.73;5.05;;;5.40;99.90;;;;;;5094795;28;20040;-79
2023/04/02 00:11:06;;;;;;;7.63;5.03;;;5.00;99.90;;;;;;5094444;28;20051;-79
2023/04/02 00:13:47;;;;;;;11.50;6.35;;;5.00;99.90;;;;;;5094644;28;20383;-80
2023/04/02 00:16:21;;;;;;;7.95;4.93;;;5.10;99.90;;;;;;5094164;28;20040;-79
2023/04/02 00:18:51;;;;;;;8.23;5.05;;;5.00;99.90;;;;;;5094593;28;20097;-79
2023/04/02 00:21:22;;;;;;;14.43;6.18;;;4.90;99.90;;;;;;5094314;28;20044;-78
2023/04/02 00:23:47;;;;;;;7.72;5.45;;;4.90;99.90;;;;;;5093726;28;20480;-79
2023/04/02 00:26:41;;;;;;;11.88;5.72;;;5.30;99.90;;;;;;5094513;28;20043;-80
2023/04/02 00:29:11;;;;;;;8.65;5.68;;;4.80;99.90;;;;;;5094184;28;20131;-79
2023/04/02 00:31:41;;;;;;;10.77;6.28;;;4.80;99.90;;;;;;5092822;28;20043;-79
2023/04/02 00:34:12;;;;;;;7.95;5.53;;;4.80;99.90;;;;;;5093661;28;20047;-80
2023/04/02 00:36:38;;;;;;;9.57;5.93;;;4.90;99.90;;;;;;5094135;28;20055;-80
2023/04/02 00:39:14;;;;;;;8.80;4.38;;;5.00;99.90;;;;;;5093411;28;20040;-80
2023/04/02 00:41:45;;;;;;;8.88;4.90;;;4.70;99.90;;;;;;5094219;28;20391;-80
2023/04/02 00:44:20;;;;;;;7.53;5.10;;;4.60;99.90;;;;;;5092977;28;20040;-78
2023/04/02 00:46:48;;;;;;;7.15;4.70;;;4.90;99.90;;;;;;5093864;28;20052;-79
2023/04/02 00:49:31;;;;;;;8.52;4.55;;;4.60;99.90;;;;;;5093791;28;20048;-79
2023/04/02 00:52:01;;;;;;;9.02;4.70;;;4.60;99.90;;;;;;5093999;28;20059;-78
2023/04/02 00:54:31;;;;;;;7.90;5.18;;;4.60;99.90;;;;;;5093761;28;20086;-79
2023/04/02 00:56:57;;;;;;;10.40;5.38;;;4.50;99.90;;;;;;5093544;28;20044;-79
2023/04/02 00:59:41;;;;;;;8.87;5.17;;;4.50;99.90;;;;;;5094067;28;20036;-78
2023/04/02 01:02:16;;;;;;;7.75;5.30;;;4.50;99.90;;;;;;5093730;28;20040;-79
2023/04/02 01:04:50;;;;;;;9.85;5.57;;;4.40;99.90;;;;;;5093861;28;20089;-79
2023/04/02 01:07:17;;;;;;;9.95;5.18;;;4.40;99.90;;;;;;5094067;28;20044;-78
2023/04/02 01:09:52;;;;;;;7.10;5.35;;;4.40;99.90;;;;;;5093512;28;20446;-79
2023/04/02 01:12:53;;;;;;;9.23;5.13;;;4.30;99.90;;;;;;5094050;28;20443;-79
2023/04/02 01:15:36;;;;;;;9.35;5.43;;;4.30;99.90;;;;;;5069490;28;20063;-78
2023/04/02 01:18:25;;;;;;;7.90;5.05;;;4.20;99.90;;;;;;5092307;28;20128;-79
2023/04/02 01:21:02;;;;;;;5.30;4.03;;;4.20;99.90;;;;;;5093632;28;20668;-79
2023/04/02 01:23:46;;;;;;;10.90;5.25;;;4.10;99.90;;;;;;5094026;28;20048;-78
2023/04/02 01:26:33;;;;;;;6.13;3.75;;;4.00;99.90;;;;;;5093426;28;20044;-78
2023/04/02 01:29:10;;;;;;;6.05;3.28;;;4.00;99.90;;;;;;5093877;28;20097;-80
2023/04/02 01:31:37;;;;;;;7.50;3.92;;;4.00;99.90;;;;;;5093438;28;20040;-79
2023/04/02 01:34:06;;;;;;;7.38;3.85;;;4.00;99.90;;;;;;5093397;28;20055;-79
2023/04/02 01:36:53;;;;;;;7.00;3.42;;;3.90;99.90;;;;;;5093376;28;20481;-79
2023/04/02 01:39:45;;;;;;;8.90;4.25;;;3.90;99.90;;;;;;5092818;28;20040;-79
2023/04/02 01:42:52;;;;;;;5.13;3.80;;;3.80;99.90;;;;;;5093335;28;20044;-78
2023/04/02 01:45:20;;;;;;;5.75;3.70;;;3.80;99.90;;;;;;5093139;28;20044;-79
2023/04/02 01:47:47;;;;;;;5.72;3.42;;;3.80;99.90;;;;;;5093075;28;20036;-78
2023/04/02 01:50:18;;;;;;;6.78;3.10;;;3.70;99.90;;;;;;5093804;28;20093;-79
2023/04/02 01:52:48;;;;;;;11.65;3.40;;;3.60;99.90;;;;;;5097016;28;20058;-78
2023/04/02 01:55:19;;;;;;;5.65;3.10;;;3.60;99.90;;;;;;5097102;28;20048;-78
2023/04/02 01:57:48;;;;;;;6.40;3.13;;;3.50;99.90;;;;;;5095680;28;20079;-79
2023/04/02 02:00:16;;;;;;;4.57;2.90;;;3.50;99.90;;;;;;5096848;28;20046;-79
2023/04/02 02:02:45;;;;;;;4.00;2.70;;;3.40;99.90;;;;;;5096849;28;20058;-78
2023/04/02 02:05:16;;;;;;;4.72;3.05;;;3.30;99.90;;;;;;5096766;28;20055;-78
2023/04/02 02:07:42;;;;;;;5.00;2.60;;;3.30;99.90;;;;;;5096822;28;20101;-78
2023/04/02 02:10:17;;;;;;;4.83;2.80;;;3.20;99.90;;;;;;5096678;28;20051;-76
2023/04/02 02:12:44;;;;;;;4.45;2.85;;;3.20;99.90;;;;;;5096568;28;20285;-78
2023/04/02 02:15:19;;;;;;;3.63;2.47;;;3.10;99.90;;;;;;5096812;28;20408;-78
2023/04/02 02:17:45;;;;;;;5.20;2.78;;;3.10;99.90;;;;;;5096577;28;20055;-77
2023/04/02 02:20:12;;;;;;;5.68;2.63;;;3.00;99.90;;;;;;5096480;28;20043;-78
2023/04/02 02:22:49;;;;;;;7.88;2.45;;;3.00;99.90;;;;;;5096331;28;20055;-78
2023/04/02 02:25:21;;;;;;;7.07;2.78;;;2.90;99.90;;;;;;5096415;28;20047;-78
2023/04/02 02:28:28;;;;;;;4.50;2.50;;;2.80;99.90;;;;;;5096415;28;20048;-78
2023/04/02 02:31:01;;;;;;;5.45;2.55;;;2.70;99.90;;;;;;5017519;28;20061;-79
2023/04/02 02:33:37;;;;;;;4.75;2.47;;;2.60;99.90;;;;;;5033976;28;20056;-78
2023/04/02 02:36:11;;;;;;;5.55;2.75;;;2.60;99.90;;;;;;5071749;28;20060;-78
2023/04/02 02:39:01;;;;;;;4.47;2.28;;;2.40;99.90;;;;;;5096211;28;20048;-78
2023/04/02 02:41:48;;;;;;;7.93;2.60;;;2.40;99.90;;;;;;5096077;28;20083;-78
2023/04/02 02:44:23;;;;;;;4.13;2.33;;;2.40;99.90;;;;;;5096485;28;20074;-78
2023/04/02 02:46:57;;;;;;;7.93;2.67;;;2.30;99.90;;;;;;5096141;28;20040;-77
2023/04/02 02:49:38;;;;;;;4.07;2.08;;;2.30;99.90;;;;;;5095639;28;20511;-77
2023/04/02 02:52:30;;;;;;;5.90;2.40;;;2.20;99.90;;;;;;5078056;28;20043;-78
2023/04/02 02:54:58;;;;;;;6.18;2.70;;;2.20;99.90;;;;;;5096382;28;20396;-77
2023/04/02 02:57:28;;;;;;;4.18;2.40;;;2.20;99.90;;;;;;5095781;28;20051;-78
2023/04/02 02:59:57;;;;;;;5.50;2.58;;;2.10;99.90;;;;;;5095616;28;20044;-78
2023/04/02 03:02:24;;;;;;;8.02;3.22;;;2.10;99.90;;;;;;5094092;28;20036;-78
2023/04/02 03:04:51;;;;;;;;;;;2.00;99.90;;;;;;5096142;28;20438;-78
2023/04/02 03:07:20;;;;;;;7.45;2.60;;;2.00;99.90;;;;;;5096023;28;20009;-78
2023/04/02 03:10:09;;;;;;;6.50;3.55;;;2.00;99.90;;;;;;5095542;28;20389;-78
2023/04/02 03:12:59;;;;;;;8.02;3.17;;;1.90;99.90;;;;;;5086870;28;20112;-78
2023/04/02 03:15:40;;;;;;;5.70;2.80;;;1.90;99.90;;;;;;5095118;28;20484;-78
2023/04/02 03:18:29;;;;;;;8.07;3.20;;;1.90;99.90;;;;;;5095456;28;20055;-79
2023/04/02 03:21:18;;;;;;;5.78;3.50;;;1.90;99.90;;;;;;5095223;28;20051;-78
2023/04/02 03:23:50;;;;;;;5.20;3.22;;;1.90;99.90;;;;;;5084182;28;20048;-78
2023/04/02 03:26:39;;;;;;;5.10;3.17;;;1.80;99.90;;;;;;5095605;28;20050;-79
2023/04/02 03:29:25;;;;;;;6.80;3.33;;;1.80;99.90;;;;;;5094968;28;20044;-78
2023/04/02 03:32:06;;;;;;;4.97;3.35;;;1.80;99.90;;;;;;5094793;28;20101;-78
2023/04/02 03:34:44;;;;;;;9.55;3.83;;;1.80;99.90;;;;;;5095486;28;20039;-78
2023/04/02 03:37:21;;;;;;;7.03;3.83;;;1.80;99.90;;;;;;5095492;28;20048;-78
2023/04/02 03:40:09;;;;;;;8.85;4.03;;;1.80;99.90;;;;;;5095033;28;20072;-78
2023/04/02 03:43:16;;;;;;;7.15;3.70;;;1.80;99.90;;;;;;5095056;28;20496;-79
2023/04/02 03:45:48;;;;;;;9.30;4.18;;;1.80;99.90;;;;;;5032245;28;20171;-78
2023/04/02 03:48:30;;;;;;;6.15;4.70;;;2.10;99.90;;;;;;5032236;28;20627;-79
2023/04/02 03:50:59;;;;;;;6.30;4.30;;;1.90;99.90;;;;;;5072250;28;20082;-78
2023/04/02 03:53:26;;;;;;;5.28;4.00;;;1.90;99.90;;;;;;5094692;28;20047;-78
2023/04/02 03:55:52;;;;;;;7.65;4.00;;;1.90;99.90;;;;;;5095008;28;20086;-78
2023/04/02 03:58:25;;;;;;;5.93;3.92;;;1.80;99.90;;;;;;5094377;28;20475;-79
2023/04/02 04:00:54;;;;;;;6.25;4.20;;;1.90;99.90;;;;;;5094467;28;20552;-79
2023/04/02 04:03:40;;;;;;;7.32;3.60;;;1.90;99.90;;;;;;5093016;28;20395;-78
2023/04/02 04:06:15;;;;;;;7.18;4.55;;;2.70;99.90;;;;;;5094412;28;20114;-80
2023/04/02 04:09:10;;;;;;;8.82;4.20;;;1.80;99.90;;;;;;5094665;28;20124;-79
2023/04/02 04:11:42;;;;;;;8.07;4.55;;;1.80;99.90;;;;;;5091666;28;20054;-78
2023/04/02 04:14:16;;;;;;;8.43;4.38;;;1.80;99.90;;;;;;5093479;28;20072;-79
2023/04/02 04:16:52;;;;;;;8.15;4.53;;;1.80;99.90;;;;;;5093639;28;20116;-79
2023/04/02 04:19:31;;;;;;;6.67;4.53;;;1.80;99.90;;;;;;5094181;28;20036;-78
2023/04/02 04:22:28;;;;;;;10.43;4.32;;;1.80;99.90;;;;;;5094251;28;20048;-78
2023/04/02 04:24:58;;;;;;;7.88;3.92;;;1.80;99.90;;;;;;5093866;28;20511;-79
2023/04/02 04:27:36;;;;;;;6.05;3.53;;;1.80;99.90;;;;;;5093830;28;20491;-78
2023/04/02 04:30:26;;;;;;;6.53;3.97;;;1.90;99.90;;;;;;5094236;28;20392;-79
2023/04/02 04:33:21;;;;;;;5.97;3.53;;;1.90;99.90;;;;;;5094082;28;20368;-78
2023/04/02 04:36:02;;;;;;;7.80;4.50;;;1.80;99.90;;;;;;5094260;28;20061;-79
2023/04/02 04:38:32;;;;;;;6.60;4.70;;;1.80;99.90;;;;;;5093929;28;20555;-79
2023/04/02 04:41:05;;;;;;;8.60;5.68;;;1.80;99.90;;;;;;5093938;28;20047;-79
2023/04/02 04:43:40;;;;;;;9.15;5.22;;;1.80;99.90;;;;;;5093893;28;20131;-79
2023/04/02 04:46:12;;;;;;;8.38;5.13;;;1.80;99.90;;;;;;5093922;28;20048;-79
2023/04/02 04:48:46;;;;;;;6.93;5.78;;;1.80;99.90;;;;;;5093979;28;20063;-79
2023/04/02 04:51:32;;;;;;;13.38;5.20;;;1.80;99.90;;;;;;5093734;28;20055;-79
2023/04/02 04:54:00;;;;;;;6.90;4.82;;;1.80;99.90;;;;;;5094161;28;20093;-79
2023/04/02 04:56:28;;;;;;;7.80;5.00;;;1.80;99.90;;;;;;5093617;28;20044;-79
2023/04/02 04:59:06;;;;;;;8.13;4.32;;;1.80;99.90;;;;;;5093420;28;20502;-79
2023/04/02 05:01:40;;;;;;;8.85;5.10;;;1.80;99.90;;;;;;5093643;28;20079;-79
2023/04/02 05:04:20;;;;;;;7.57;4.63;;;1.80;99.90;;;;;;5093563;28;20048;-77
2023/04/02 05:07:10;;;;;;;9.52;5.53;;;1.80;99.90;;;;;;5092807;28;20055;-79
2023/04/02 05:09:44;;;;;;;13.20;5.20;;;1.70;99.90;;;;;;5092373;28;20044;-79
2023/04/02 05:12:44;;;;;;;8.07;4.47;;;1.80;99.90;;;;;;5093507;28;20433;-78
2023/04/02 05:15:34;;;;;;;12.73;5.15;;;1.60;99.90;;;;;;5093464;28;20047;-79
2023/04/02 05:18:12;;;;;;;9.82;4.75;;;1.70;99.90;;;;;;5075573;28;20050;-80
2023/04/02 05:20:59;;;;;;;6.13;4.40;;;1.70;99.90;;;;;;5092132;28;20432;-78
2023/04/02 05:23:58;;;;;;;8.38;5.13;;;1.70;99.90;;;;;;5092897;28;20434;-79
2023/04/02 05:26:29;;;;;;;6.88;5.13;;;1.70;99.90;;;;;;5079725;28;20181;-81
2023/04/02 05:29:16;;;;;;;6.15;4.53;;;1.70;99.90;;;;;;5097535;28;20086;-79
2023/04/02 05:32:01;;;;;;;6.35;3.97;;;1.70;99.90;;;;;;5097938;28;20080;-79
2023/04/02 05:34:32;;;;;;;9.00;4.45;;;1.70;99.90;;;;;;5097720;28;20052;-79
2023/04/02 05:36:58;;;;;;;8.48;4.20;;;1.80;99.90;;;;;;5097336;28;20036;-79
2023/04/02 05:39:25;;;;;;;7.25;4.22;;;1.70;99.90;;;;;;5097210;28;20036;-81
2023/04/02 05:42:04;;;;;;;10.90;4.00;;;1.80;99.90;;;;;;5097311;28;20505;-79
2023/04/02 05:44:35;;;;;;;7.65;4.68;;;2.50;99.90;;;;;;5097032;28;20536;-80
2023/04/02 05:47:04;;;;;;;4.22;3.60;;;1.80;99.90;;;;;;5097179;28;20097;-80
2023/04/02 05:49:33;;;;;;;8.98;3.95;;;1.90;99.90;;;;;;5097269;28;20066;-79
2023/04/02 05:52:02;;;;;;;6.53;3.63;;;1.90;99.90;;;;;;5096953;28;20061;-79
2023/04/02 05:54:38;;;;;;;6.93;3.15;;;1.90;99.90;;;;;;5096938;28;20169;-80
2023/04/02 05:57:11;;;;;;;6.78;3.60;;;1.90;99.90;;;;;;5096978;28;20551;-80
2023/04/02 05:59:43;;;;;;;7.50;2.75;;;2.00;99.90;;;;;;5097141;28;20040;-80
2023/04/02 06:02:21;;;;;;;7.05;2.72;;;2.00;99.90;;;;;;5096464;28;20149;-79
2023/04/02 06:04:55;;;;;;;4.32;2.58;;;2.00;99.90;;;;;;5097277;28;20101;-81
2023/04/02 06:07:22;;;;;;;6.75;2.25;;;2.00;99.90;;;;;;5096859;28;20081;-79
2023/04/02 06:10:06;;;;;;;7.47;2.92;;;2.10;99.90;;;;;;5096764;28;20052;-79
2023/04/02 06:12:53;;;;;;;4.72;2.80;;;2.10;99.90;;;;;;5096477;28;20044;-78
2023/04/02 06:15:21;;;;;;;9.45;3.40;;;2.10;99.90;;;;;;5096882;28;20488;-82
2023/04/02 06:18:05;;;;;;;4.45;2.80;;;2.10;99.90;;;;;;5096842;28;20055;-77
2023/04/02 06:20:31;;;;;;;9.43;4.22;;;2.20;99.90;;;;;;5096561;28;20052;-78
2023/04/02 06:23:00;;;;;;;6.90;3.30;;;2.20;99.90;;;;;;5096464;28;20044;-81
2023/04/02 06:25:37;;;;;;;6.03;2.33;;;2.20;99.90;;;;;;5095845;28;20297;-78
2023/04/02 06:28:05;;;;;;;5.68;2.53;;;2.20;99.90;;;;;;5096087;28;20040;-77
2023/04/02 06:30:35;;;;;;;4.93;2.55;;;2.20;99.90;;;;;;5096401;28;20052;-79
2023/04/02 06:33:02;;;;;;;5.00;2.88;;;2.30;99.90;;;;;;5096172;28;20130;-85
2023/04/02 06:35:28;;;;;;;4.70;2.72;;;2.20;99.90;;;;;;5095854;28;20048;-84
2023/04/02 06:37:56;;;;;;;6.28;2.72;;;2.30;99.90;;;;;;5095070;28;20052;-79
2023/04/02 06:40:32;;;;;;;5.75;2.33;;;2.40;99.90;;;;;;5096126;28;20036;-80
2023/04/02 06:43:07;;;;;;;4.70;2.40;;;2.40;99.90;;;;;;5094851;28;20092;-78
2023/04/02 06:45:40;;;;;;;4.57;2.35;;;2.50;99.90;;;;;;5095001;28;20051;-88
2023/04/02 06:48:16;;;;;;;5.82;2.80;;;2.50;99.90;;;;;;5096005;28;20079;-81
2023/04/02 06:50:51;;;;;;;7.43;2.90;;;2.50;99.90;;;;;;5095056;28;20048;-79
2023/04/02 06:53:48;;;;;;;8.93;2.70;;;2.50;99.90;;;;;;5095907;28;20044;-81
2023/04/02 06:56:41;;;;;;;5.60;2.72;;;2.60;99.90;;;;;;5094725;28;20387;-80
2023/04/02 06:59:07;;;;;;;5.82;2.75;;;2.70;99.90;;;;;;5095826;28;20040;-80
2023/04/02 07:01:38;;;;;;;5.63;3.00;;;2.80;99.90;;;;;;5095934;28;20127;-84
2023/04/02 07:04:05;;;;;;;7.10;2.65;;;2.90;99.90;;;;;;5095635;28;20040;-80
2023/04/02 07:06:30;;;;;;;8.10;2.70;;;3.70;99.90;;;;;;5094512;28;20044;-83
2023/04/02 07:08:56;;;;;;;4.40;2.47;;;3.00;99.90;;;;;;5094391;28;20043;-79
2023/04/02 07:11:22;;;;;;;5.22;2.33;;;3.20;99.90;;;;;;5077622;28;20040;-79
2023/04/02 07:13:49;;;;;;;5.93;2.83;;;3.90;99.90;;;;;;5077710;28;20065;-80
2023/04/02 07:16:26;;;;;;;5.35;2.45;;;3.40;99.90;;;;;;5095693;28;20135;-86
2023/04/02 07:18:54;;;;;;;5.53;2.50;;;3.60;99.90;;;;;;5093737;28;20047;-79
2023/04/02 07:21:20;;;;;;;8.48;2.35;;;3.70;99.90;;;;;;5095264;28;20070;-80
2023/04/02 07:23:45;;;;;;;7.13;2.40;;;3.90;99.90;;;;;;5095306;28;20044;-78
2023/04/02 07:26:21;;;;;;;4.45;2.28;;;3.90;99.90;;;;;;5094795;28;20538;-80
2023/04/02 07:28:46;;;;;;;5.68;2.08;;;4.10;99.90;;;;;;5095217;28;20052;-81
2023/04/02 07:31:25;;;;;;;5.93;2.72;;;4.20;99.90;;;;;;5095158;28;20116;-77
2023/04/02 07:33:58;;;;;;;7.15;3.40;;;4.30;99.90;;;;;;5095358;28;20101;-79
2023/04/02 07:36:25;;;;;;;4.90;1.83;;;4.20;99.90;;;;;;5094182;28;20063;-78
2023/04/02 07:38:51;;;;;;;5.75;2.10;;;4.00;99.90;;;;;;5094626;28;20087;-77
2023/04/02 07:41:18;;;;;;;3.60;1.70;;;3.80;99.90;;;;;;5095294;28;20051;-78
2023/04/02 07:43:44;;;;;;;5.38;2.25;;;3.80;99.90;;;;;;5095027;28;20124;-79
2023/04/02 07:46:13;;;;;;;5.53;1.85;;;3.90;99.90;;;;;;5094949;28;20054;-79
2023/04/02 07:48:39;;;;;;;5.38;2.30;;;3.80;99.90;;;;;;5094733;28;20060;-78
2023/04/02 07:51:23;;;;;;;2.92;1.80;;;3.70;99.90;;;;;;5094403;28;20085;-77
2023/04/02 07:53:54;;;;;;;7.50;2.55;;;3.60;99.90;;;;;;5094993;28;20104;-78
2023/04/02 07:56:21;;;;;;;5.85;2.30;;;3.60;99.90;;;;;;5094712;28;20048;-77
2023/04/02 07:58:47;;;;;;;8.77;2.67;;;3.70;99.90;;;;;;5094801;28;20429;-79
2023/04/02 08:01:25;;;;;;;3.22;1.98;;;3.70;99.90;;;;;;5094476;28;20044;-78
2023/04/02 08:03:52;;;;;;;6.90;2.58;;;3.70;99.90;;;;;;5094635;28;20054;-79
2023/04/02 08:06:18;;;;;;;9.13;2.42;;;3.80;99.90;;;;;;5094433;28;20048;-78
2023/04/02 08:08:44;;;;;;;9.20;2.17;;;3.70;99.90;;;;;;5094302;28;20055;-78
2023/04/02 08:11:10;;;;;;;4.20;2.25;;;3.90;99.90;;;;;;5094431;28;20399;-78
2023/04/02 08:13:36;;;;;;;3.03;2.03;;;4.00;99.90;;;;;;5094297;28;20093;-79
2023/04/02 08:16:03;;;;;;;7.45;2.63;;;4.10;99.90;;;;;;5092964;28;20032;-79
2023/04/02 08:18:29;;;;;;;;;;;4.20;99.90;;;;;;5095038;28;20127;-79
2023/04/02 08:20:56;;;;;;;8.48;2.20;;;5.30;99.90;;;;;;5094248;28;20043;-79
2023/04/02 08:23:22;;;;;;;3.80;2.70;;;4.50;99.90;;;;;;5093926;28;20051;-79
2023/04/02 08:25:48;;;;;;;4.57;2.17;;;4.70;99.90;;;;;;5094132;28;20095;-79
2023/04/02 08:28:14;;;;;;;8.05;2.55;;;5.00;99.90;;;;;;5094105;28;20079;-79
2023/04/02 08:30:40;;;;;;;4.50;2.45;;;5.60;99.90;;;;;;5094074;28;20157;-79
2023/04/02 08:33:06;;;;;;;3.85;2.55;;;5.10;99.90;;;;;;5093735;28;20040;-78
2023/04/02 08:35:32;;;;;;;3.08;2.03;;;5.10;99.90;;;;;;5093640;28;20051;-80
2023/04/02 08:38:00;;;;;;;4.72;2.47;;;5.10;99.90;;;;;;5093933;28;20040;-79
2023/04/02 08:40:28;;;;;;;9.10;2.67;;;6.00;99.90;;;;;;5093891;28;20036;-78
2023/04/02 08:43:21;;;;;;;4.95;2.30;;;5.50;99.90;;;;;;5093887;28;20046;-77
2023/04/02 08:45:55;;;;;;;2.78;1.92;;;5.20;99.90;;;;;;5093953;28;20109;-78
2023/04/02 08:48:22;;;;;;;5.32;2.70;;;5.20;99.90;;;;;;5094043;28;20060;-79
2023/04/02 08:50:49;;;;;;;5.78;2.42;;;5.20;99.90;;;;;;5093718;28;20122;-79
2023/04/02 08:53:26;;;;;;;3.20;2.38;;;5.10;99.90;;;;;;5093799;28;20043;-78
2023/04/02 08:56:18;;;;;;;3.90;2.47;;;5.10;99.90;;;;;;5093785;28;20048;-78
2023/04/02 08:58:49;;;;;;;5.65;2.35;;;5.20;99.90;;;;;;5093073;28;20131;-78
2023/04/02 09:01:20;;;;;;;5.28;2.63;;;5.30;99.90;;;;;;5093562;28;20040;-77
2023/04/02 09:03:49;;;;;;;4.25;2.38;;;5.40;99.90;;;;;;5093651;28;20083;-78
2023/04/02 09:06:18;;;;;;;3.88;2.40;;;5.40;99.90;;;;;;5093158;28;20523;-79
2023/04/02 09:08:47;;;;;;;6.15;2.75;;;6.10;99.90;;;;;;5093553;28;20044;-78
2023/04/02 09:11:35;;;;;;;5.53;3.28;;;5.80;99.90;;;;;;5093389;28;20032;-78
2023/04/02 09:14:05;;;;;;;6.18;2.35;;;6.00;99.90;;;;;;5093593;28;20405;-79
2023/04/02 09:16:40;;;;;;;4.32;2.10;;;6.00;99.90;;;;;;5093545;28;20052;-78
2023/04/02 09:19:46;;;;;;;3.13;2.40;;;6.00;99.90;;;;;;5093489;28;20052;-78
2023/04/02 09:22:22;;;;;;;4.43;2.38;;;6.00;99.90;;;;;;5069468;28;20396;-79
2023/04/02 09:24:59;;;;;;;5.05;2.00;;;6.20;99.90;;;;;;5093484;28;20466;-79
2023/04/02 09:27:28;;;;;;;;;;;6.30;99.90;;;;;;5093888;28;20048;-78
2023/04/02 09:30:02;;;;;;;5.07;2.45;;;6.40;99.90;;;;;;5093444;28;20345;-79
2023/04/02 09:32:53;;;;;;;4.07;2.00;;;6.30;99.90;;;;;;5093353;28;20055;-78
2023/04/02 09:35:31;;;;;;;5.13;2.45;;;6.50;99.90;;;;;;5093423;28;20036;-79
2023/04/02 09:38:15;;;;;;;3.97;2.20;;;6.60;99.90;;;;;;5093849;28;20047;-79
2023/04/02 09:41:00;;;;;;;4.30;2.10;;;6.70;99.90;;;;;;5093556;28;20404;-79
2023/04/02 09:43:31;;;;;;;4.18;2.28;;;6.60;99.90;;;;;;5093620;28;20063;-79
2023/04/02 09:46:20;;;;;;;5.22;2.47;;;7.10;99.90;;;;;;5092933;28;20518;-78
2023/04/02 09:48:53;;;;;;;3.35;1.95;;;6.70;99.90;;;;;;5081857;28;20065;-79
2023/04/02 09:51:23;;;;;;;3.10;1.60;;;6.90;99.90;;;;;;5093375;28;20055;-78
2023/04/02 09:54:03;;;;;;;7.18;2.28;;;6.80;99.90;;;;;;5093285;28;20048;-78
2023/04/02 09:56:39;;;;;;;3.58;2.10;;;6.90;99.90;;;;;;5093148;28;20036;-78
2023/04/02 09:59:17;;;;;;;6.53;2.30;;;7.00;99.90;;;;;;5092661;28;20483;-78
2023/04/02 10:01:57;;;;;;;5.15;1.90;;;7.20;99.90;;;;;;5084887;28;20048;-81
2023/04/02 10:04:43;;;;;;;3.33;2.00;;;7.40;99.90;;;;;;5092843;28;20051;-79
2023/04/02 10:07:29;;;;;;;2.72;2.00;;;7.60;99.90;;;;;;5073334;28;20071;-77
2023/04/02 10:10:00;;;;;;;2.92;2.13;;;7.70;99.90;;;;;;5085423;28;20086;-79
2023/04/02 10:12:29;;;;;;;3.35;1.75;;;7.80;99.90;;;;;;5082744;28;20048;-80
2023/04/02 10:14:56;;;;;;;3.85;2.03;;;8.00;99.90;;;;;;5076201;28;20051;-80
2023/04/02 10:17:23;;;;;;;5.88;2.13;;;7.80;99.90;;;;;;5077626;28;20047;-80
2023/04/02 10:20:10;;;;;;;3.58;1.90;;;7.90;99.90;;;;;;5096454;28;20036;-77
2023/04/02 10:22:36;;;;;;;5.20;2.50;;;7.90;99.90;;;;;;5096065;28;20047;-79
2023/04/02 10:25:04;;;;;;;5.53;1.85;;;8.00;99.90;;;;;;5096611;28;20044;-79
2023/04/02 10:27:43;;;;;;;4.72;2.15;;;8.00;99.90;;;;;;5096491;28;20395;-79
2023/04/02 10:30:37;;;;;;;4.60;2.10;;;8.00;99.90;;;;;;5095173;28;20044;-79
2023/04/02 10:33:31;;;;;;;3.88;1.90;;;8.00;99.90;;;;;;5091961;28;20051;-83
2023/04/02 10:36:07;;;;;;;2.97;1.83;;;8.10;99.90;;;;;;5075973;28;20515;-81
2023/04/02 10:38:50;;;;;;;3.15;1.70;;;8.10;99.90;;;;;;5074729;28;20048;-80
2023/04/02 10:41:38;;;;;;;4.72;2.00;;;8.00;99.90;;;;;;5056055;28;20048;-80
2023/04/02 10:44:03;;;;;;;5.68;1.83;;;8.00;99.90;;;;;;5073744;28;20496;-77
2023/04/02 10:46:38;;;;;;;5.35;1.83;;;8.50;99.90;;;;;;5075377;28;20181;-77
2023/04/02 10:49:29;;;;;;;3.00;1.88;;;8.20;99.90;;;;;;5075806;28;20389;-77
2023/04/02 10:52:02;;;;;;;5.47;2.08;;;8.30;99.90;;;;;;5075649;28;20054;-81
2023/04/02 10:54:44;;;;;;;2.30;1.50;;;8.40;99.90;;;;;;5075756;28;20048;-76
2023/04/02 10:57:15;;;;;;;3.60;1.60;;;8.60;99.90;;;;;;5075753;28;20464;-78
2023/04/02 10:59:53;;;;;;;3.00;1.50;;;8.80;99.90;;;;;;5075430;28;20046;-80
2023/04/02 11:03:01;;;;;;;3.67;2.00;;;8.90;99.90;;;;;;5076288;28;20242;-81
2023/04/02 11:05:52;;;;;;;3.63;1.65;;;8.80;99.90;;;;;;5074179;28;20209;-80
2023/04/02 11:08:36;;;;;;;5.95;2.10;;;8.50;99.90;;;;;;5074544;28;20201;-78
2023/04/02 11:11:25;;;;;;;3.83;1.92;;;8.50;99.90;;;;;;5075286;28;20143;-78
2023/04/02 11:14:02;;;;;;;2.72;1.50;;;8.60;99.90;;;;;;5075260;28;20092;-78
2023/04/02 11:16:28;;;;;;;4.45;1.70;;;8.90;99.90;;;;;;5075487;28;20131;-80
2023/04/02 11:19:09;;;;;;;4.28;2.25;;;8.90;99.90;;;;;;5075248;28;20131;-84
2023/04/02 11:21:35;;;;;;;3.38;1.88;;;8.80;99.90;;;;;;5074940;28;20052;-86
2023/04/02 11:24:02;;;;;;;3.20;1.45;;;8.90;99.90;;;;;;5074980;28;20051;-80
2023/04/02 11:26:30;;;;;;;;;;;8.70;99.90;;;;;;5075853;28;20037;-78
2023/04/02 11:29:13;;;;;;;;;;;8.50;99.90;;;;;;5075470;28;19927;-78
2023/04/02 11:31:40;;;;;;;3.55;1.83;;;8.50;99.90;;;;;;5075268;28;19926;-82
2023/04/02 11:34:10;;;;;;;3.53;1.77;;;9.30;99.90;;;;;;5074770;28;20158;-79
2023/04/02 11:36:54;;;;;;;3.63;1.70;;;8.70;99.90;;;;;;5074990;28;20047;-80
2023/04/02 11:39:52;;;;;;;5.38;1.83;;;8.80;99.90;;;;;;5074666;28;20480;-79
2023/04/02 11:42:17;;;;;;;4.63;1.90;;;8.90;99.90;;;;;;5074837;28;20056;-78
2023/04/02 11:44:43;;;;;;;2.95;1.58;;;9.40;99.90;;;;;;5075168;28;20059;-82
2023/04/02 11:47:15;;;;;;;3.00;1.67;;;9.00;99.90;;;;;;5074012;28;20067;-77
2023/04/02 11:50:01;;;;;;;2.47;1.50;;;9.00;99.90;;;;;;5073467;28;20113;-77
2023/04/02 11:52:35;;;;;;;3.17;1.70;;;9.30;99.90;;;;;;5074394;28;20139;-78
2023/04/02 11:55:23;;;;;;;4.65;1.70;;;9.30;99.90;;;;;;5074547;28;20089;-77
2023/04/02 11:57:51;;;;;;;5.03;1.90;;;9.30;99.90;;;;;;5074386;28;20048;-78
2023/04/02 12:00:26;;;;;;;2.75;1.42;;;9.30;99.90;;;;;;5074302;28;20076;-78
2023/04/02 12:03:15;;;;;;;2.53;1.42;;;9.10;99.90;;;;;;5074723;28;20051;-79
2023/04/02 12:06:12;;;;;;;6.38;1.95;;;9.00;99.90;;;;;;5074387;28;20046;-78
2023/04/02 12:08:53;;;;;;;4.75;1.70;;;9.00;99.90;;;;;;5069483;28;20063;-78
2023/04/02 12:11:33;;;;;;;4.30;1.60;;;9.30;99.90;;;;;;5074273;28;20044;-78
2023/04/02 12:14:00;;;;;;;5.57;1.80;;;9.50;99.90;;;;;;5074125;28;20059;-79
2023/04/02 12:16:31;;;;;;;5.70;1.55;;;9.60;99.90;;;;;;5074000;28;20055;-77
2023/04/02 12:18:58;;;;;;;5.05;1.60;;;9.60;99.90;;;;;;5074528;28;20040;-78
2023/04/02 12:21:26;;;;;;;3.25;1.40;;;9.60;99.90;;;;;;5073866;28;20043;-79
2023/04/02 12:23:57;;;;;;;3.92;1.30;;;10.30;99.90;;;;;;5073992;28;20044;-78
2023/04/02 12:26:35;;;;;;;4.30;1.33;;;9.80;99.90;;;;;;5073925;28;20051;-79
2023/04/02 12:29:25;;;;;;;2.67;1.55;;;9.90;99.90;;;;;;5073929;28;20048;-79
2023/04/02 12:31:56;;;;;;;4.25;1.70;;;10.00;99.90;;;;;;5074124;28;20086;-78
2023/04/02 12:34:25;;;;;;;2.45;1.50;;;10.00;99.90;;;;;;5073529;28;20155;-80
2023/04/02 12:37:04;;;;;;;2.72;1.52;;;10.20;99.90;;;;;;5073804;28;20059;-78
2023/04/02 12:39:34;;;;;;;5.60;1.50;;;10.10;99.90;;;;;;5073595;28;20045;-78
2023/04/02 12:42:00;;;;;;;2.90;1.30;;;10.40;99.90;;;;;;5074114;28;20033;-79
2023/04/02 12:44:28;;;;;;;3.28;1.50;;;10.10;99.90;;;;;;5074109;28;20044;-78
2023/04/02 12:46:55;;;;;;;2.45;1.25;;;10.10;99.90;;;;;;5072641;28;20058;-77
2023/04/02 12:49:37;;;;;;;4.03;1.90;;;10.00;99.90;;;;;;5073236;28;20059;-78
2023/04/02 12:52:10;;;;;;;5.00;1.70;;;10.00;99.90;;;;;;5073619;28;20404;-78
2023/04/02 12:54:51;;;;;;;3.58;1.77;;;10.00;99.90;;;;;;5074235;28;20040;-77
2023/04/02 12:57:32;;;;;;;4.10;1.50;;;10.20;99.90;;;;;;5073411;28;20052;-76
2023/04/02 13:00:16;;;;;;;4.80;1.65;;;10.20;99.90;;;;;;5073412;28;20083;-78
2023/04/02 13:02:44;;;;;;;3.63;1.38;;;10.30;99.90;;;;;;5072559;28;20054;-78
2023/04/02 13:05:10;;;;;;;2.83;1.42;;;10.40;99.90;;;;;;5073146;28;20071;-76
2023/04/02 13:07:36;;;;;;;3.08;1.48;;;10.50;99.90;;;;;;5073359;28;20048;-76
2023/04/02 13:10:24;;;;;;;3.17;1.35;;;10.50;99.90;;;;;;5073442;28;20036;-77
2023/04/02 13:12:55;;;;;;;2.95;1.60;;;10.70;99.90;;;;;;5073865;28;20044;-78
2023/04/02 13:15:32;;;;;;;4.93;1.70;;;10.70;99.90;;;;;;5073869;28;20124;-77
2023/04/02 13:18:16;;;;;;;3.42;1.50;;;10.70;99.90;;;;;;5073886;28;20044;-77
2023/04/02 13:20:53;;;;;;;3.10;1.30;;;10.70;99.90;;;;;;5073320;28;20036;-77
2023/04/02 13:23:33;;;;;;;2.80;1.40;;;10.70;99.90;;;;;;5073069;28;20040;-77
2023/04/02 13:26:01;;;;;;;2.00;1.35;;;10.80;99.90;;;;;;5072079;28;20036;-78
2023/04/02 13:28:27;;;;;;;2.78;1.35;;;10.70;99.90;;;;;;5071962;28;20049;-78
2023/04/02 13:30:53;;;;;;;2.75;1.30;;;10.60;99.90;;;;;;5073233;28;20392;-76
2023/04/02 13:33:19;;;;;;;4.15;1.55;;;10.50;99.90;;;;;;5088664;28;20055;-75
2023/04/02 13:35:45;;;;;;;4.35;1.58;;;10.50;99.90;;;;;;5092360;28;20055;-75
2023/04/02 13:38:11;;;;;;;4.45;1.65;;;10.60;99.90;;;;;;5093076;28;20044;-76
2023/04/02 13:40:37;;;;;;;3.67;1.30;;;10.50;99.90;;;;;;5093014;28;20036;-77